Jonni Ritscher — A8JT7 — position and weather

sailwx.info

Track history (hours):
 
Tides and Currents Weather Stations Pressure Air Temp Water Temp Dewpoint Dewpoint Depression Visibility Wind Speed Wind Dir Waves Ship Positions

Jonni Ritscher

Last reported at 2016-Sep-28 08:33 UTC. Time now 2016-Sep-28 12:02 UTC.
Position N 53°50' E 007°53'.

Length 178 m; draft 8.1 m.

Type: Ship. MMSI: 636091136.

Date/timePositionNaut miles runAvg speedWind from/ knotsBaromVisibWave heightAir tempDewpointWater temp
2016-Sep-28 08:33N 53°50' E 007°53'5210.4
2016-Sep-28 03:33N 54°40' E 007°29'1211.5
2016-Sep-28 02:33N 54°52' E 007°28'1111.2
2016-Sep-28 01:34N 55°03' E 007°27'2613.1
2016-Sep-27 23:33N 55°29' E 007°23'199 8.6
2016-Sep-27 00:32N 57°41' E 011°51'0 0.0
2016-Sep-26 20:33N 57°41' E 011°51'0 0.0
2016-Sep-26 19:32N 57°41' E 011°51'0 0.0
2016-Sep-26 15:31N 57°41' E 011°51'0 0.0
2016-Sep-26 13:33N 57°41' E 011°51'0 0.0
2016-Sep-26 11:32N 57°41' E 011°51'1 0.5
2016-Sep-26 08:33N 57°41' E 011°49'46 7.7
2016-Sep-26 02:33N 56°55' E 011°48'1010.0
2016-Sep-26 01:33N 56°45' E 011°54'1110.8
2016-Sep-26 00:33N 56°36' E 011°44'3611.2
2016-Sep-25 21:17N 56°05' E 011°08'30 7.9
2016-Sep-25 17:30N 56°09' E 010°14'0 0.0
2016-Sep-25 16:32N 56°09' E 010°14'0 0.0
2016-Sep-25 15:32N 56°09' E 010°14'0 0.0
2016-Sep-25 14:32N 56°09' E 010°14'0 0.0
2016-Sep-25 12:31N 56°09' E 010°14'0 0.0
2016-Sep-25 11:33N 56°09' E 010°14'0 0.0
2016-Sep-25 10:33N 56°09' E 010°14'0 0.0
2016-Sep-25 09:32N 56°09' E 010°14'0 0.0
2016-Sep-25 07:32N 56°09' E 010°14'14 4.7
2016-Sep-25 04:33N 56°04' E 010°37'31 7.3
2016-Sep-25 00:21N 56°19' E 011°25'17 9.7
2016-Sep-24 22:33N 56°34' E 011°41'10 9.7
2016-Sep-24 21:33N 56°43' E 011°49'18 9.2
2016-Sep-24 19:33N 57°00' E 011°42'9 9.4
2016-Sep-24 18:33N 57°09' E 011°36'10 9.7
2016-Sep-24 17:33N 57°18' E 011°30'1010.1
2016-Sep-24 16:33N 57°28' E 011°24'2010.2
2016-Sep-24 14:33N 57°42' E 010°56'19110.1
2016-Sep-23 19:33N 55°10' E 007°26'2512.4
2016-Sep-23 17:33N 54°45' E 007°28'1212.2
2016-Sep-23 16:33N 54°33' E 007°30'1212.0
2016-Sep-23 15:33N 54°21' E 007°31'2210.8
2016-Sep-23 13:33N 54°00' E 007°39'31 7.6
2016-Sep-23 09:32N 53°35' E 008°09'0 0.0
2016-Sep-23 06:33N 53°35' E 008°09'0 0.0
2016-Sep-23 04:32N 53°35' E 008°09'0 0.0
2016-Sep-23 03:32N 53°35' E 008°09'0 0.0
2016-Sep-23 02:25N 53°35' E 008°09'0 0.0
2016-Sep-23 01:31N 53°35' E 008°09'0 0.0
2016-Sep-23 00:31N 53°35' E 008°09'0 0.0
2016-Sep-22 23:33N 53°35' E 008°09'0 0.0
2016-Sep-22 20:32N 53°35' E 008°09'45 5.6
2016-Sep-22 12:33N 53°50' E 006°58'10110.9
2016-Sep-22 03:16N 53°05' E 004°26'28 9.6
2016-Sep-22 00:20N 52°40' E 004°03'8 9.4
2016-Sep-21 23:32N 52°34' E 003°57'9 9.5
2016-Sep-21 22:33N 52°25' E 003°53'28 9.3
2016-Sep-21 19:33N 51°58' E 004°03'0 0.1
2016-Sep-21 16:33N 51°57' E 004°02'0 0.0
2016-Sep-21 09:34N 51°57' E 004°02'1 1.4
2016-Sep-21 08:33N 51°57' E 003°60'0 0.0
2016-Sep-21 05:33N 51°57' E 003°60'0 0.0
2016-Sep-21 03:32N 51°57' E 003°60'0 0.0
2016-Sep-21 02:32N 51°57' E 003°60'0 0.0
2016-Sep-20 17:31N 51°57' E 003°60'0 0.0
2016-Sep-20 14:33N 51°57' E 003°60'0 0.0
2016-Sep-20 13:33N 51°57' E 003°60'0 0.0
2016-Sep-20 10:31N 51°57' E 003°60'0 0.0
2016-Sep-20 08:33N 51°57' E 003°60'0 0.0
2016-Sep-20 07:33N 51°57' E 003°60'0 0.0
2016-Sep-20 06:32N 51°57' E 003°60'7 1.7
2016-Sep-20 02:33N 52°01' E 003°51'27 8.9
2016-Sep-19 23:34N 52°28' E 003°50'4711.8
2016-Sep-19 19:33N 53°10' E 004°24'3911.3
2016-Sep-19 16:04N 53°47' E 004°46'1912.4
2016-Sep-19 14:33N 54°05' E 004°58'1212.0
2016-Sep-19 13:33N 54°15' E 005°10'28510.6
2016-Sep-18 10:33N 57°25' E 011°28'1312.9
2016-Sep-18 09:33N 57°12' E 011°36'  
Track history (hours):
 
Tides and Currents Weather Stations Pressure Air Temp Water Temp Dewpoint Dewpoint Depression Visibility Wind Speed Wind Dir Waves Ship Positions

Jonni Ritscher

Last reported at 2016-Sep-28 08:33 UTC. Time now 2016-Sep-28 12:02 UTC.
Position N 53°50' E 007°53'.

Length 178 m; draft 8.1 m.

Type: Ship. MMSI: 636091136.

Date/timePositionNaut miles runAvg speedWind from/ knotsBaromVisibWave heightAir tempDewpointWater temp
2016-Sep-28 08:33N 53°50' E 007°53'5210.4
2016-Sep-28 03:33N 54°40' E 007°29'1211.5
2016-Sep-28 02:33N 54°52' E 007°28'1111.2
2016-Sep-28 01:34N 55°03' E 007°27'2613.1
2016-Sep-27 23:33N 55°29' E 007°23'199 8.6
2016-Sep-27 00:32N 57°41' E 011°51'0 0.0
2016-Sep-26 20:33N 57°41' E 011°51'0 0.0
2016-Sep-26 19:32N 57°41' E 011°51'0 0.0
2016-Sep-26 15:31N 57°41' E 011°51'0 0.0
2016-Sep-26 13:33N 57°41' E 011°51'0 0.0
2016-Sep-26 11:32N 57°41' E 011°51'1 0.5
2016-Sep-26 08:33N 57°41' E 011°49'46 7.7
2016-Sep-26 02:33N 56°55' E 011°48'1010.0
2016-Sep-26 01:33N 56°45' E 011°54'1110.8
2016-Sep-26 00:33N 56°36' E 011°44'3611.2
2016-Sep-25 21:17N 56°05' E 011°08'30 7.9
2016-Sep-25 17:30N 56°09' E 010°14'0 0.0
2016-Sep-25 16:32N 56°09' E 010°14'0 0.0
2016-Sep-25 15:32N 56°09' E 010°14'0 0.0
2016-Sep-25 14:32N 56°09' E 010°14'0 0.0
2016-Sep-25 12:31N 56°09' E 010°14'0 0.0
2016-Sep-25 11:33N 56°09' E 010°14'0 0.0
2016-Sep-25 10:33N 56°09' E 010°14'0 0.0
2016-Sep-25 09:32N 56°09' E 010°14'0 0.0
2016-Sep-25 07:32N 56°09' E 010°14'14 4.7
2016-Sep-25 04:33N 56°04' E 010°37'31 7.3
2016-Sep-25 00:21N 56°19' E 011°25'17 9.7
2016-Sep-24 22:33N 56°34' E 011°41'10 9.7
2016-Sep-24 21:33N 56°43' E 011°49'18 9.2
2016-Sep-24 19:33N 57°00' E 011°42'9 9.4
2016-Sep-24 18:33N 57°09' E 011°36'10 9.7
2016-Sep-24 17:33N 57°18' E 011°30'1010.1
2016-Sep-24 16:33N 57°28' E 011°24'2010.2
2016-Sep-24 14:33N 57°42' E 010°56'19110.1
2016-Sep-23 19:33N 55°10' E 007°26'2512.4
2016-Sep-23 17:33N 54°45' E 007°28'1212.2
2016-Sep-23 16:33N 54°33' E 007°30'1212.0
2016-Sep-23 15:33N 54°21' E 007°31'2210.8
2016-Sep-23 13:33N 54°00' E 007°39'31 7.6
2016-Sep-23 09:32N 53°35' E 008°09'0 0.0
2016-Sep-23 06:33N 53°35' E 008°09'0 0.0
2016-Sep-23 04:32N 53°35' E 008°09'0 0.0
2016-Sep-23 03:32N 53°35' E 008°09'0 0.0
2016-Sep-23 02:25N 53°35' E 008°09'0 0.0
2016-Sep-23 01:31N 53°35' E 008°09'0 0.0
2016-Sep-23 00:31N 53°35' E 008°09'0 0.0
2016-Sep-22 23:33N 53°35' E 008°09'0 0.0
2016-Sep-22 20:32N 53°35' E 008°09'45 5.6
2016-Sep-22 12:33N 53°50' E 006°58'10110.9
2016-Sep-22 03:16N 53°05' E 004°26'28 9.6
2016-Sep-22 00:20N 52°40' E 004°03'8 9.4
2016-Sep-21 23:32N 52°34' E 003°57'9 9.5
2016-Sep-21 22:33N 52°25' E 003°53'28 9.3
2016-Sep-21 19:33N 51°58' E 004°03'0 0.1
2016-Sep-21 16:33N 51°57' E 004°02'0 0.0
2016-Sep-21 09:34N 51°57' E 004°02'1 1.4
2016-Sep-21 08:33N 51°57' E 003°60'0 0.0
2016-Sep-21 05:33N 51°57' E 003°60'0 0.0
2016-Sep-21 03:32N 51°57' E 003°60'0 0.0
2016-Sep-21 02:32N 51°57' E 003°60'0 0.0
2016-Sep-20 17:31N 51°57' E 003°60'0 0.0
2016-Sep-20 14:33N 51°57' E 003°60'0 0.0
2016-Sep-20 13:33N 51°57' E 003°60'0 0.0
2016-Sep-20 10:31N 51°57' E 003°60'0 0.0
2016-Sep-20 08:33N 51°57' E 003°60'0 0.0
2016-Sep-20 07:33N 51°57' E 003°60'0 0.0
2016-Sep-20 06:32N 51°57' E 003°60'7 1.7
2016-Sep-20 02:33N 52°01' E 003°51'27 8.9
2016-Sep-19 23:34N 52°28' E 003°50'4711.8
2016-Sep-19 19:33N 53°10' E 004°24'3911.3
2016-Sep-19 16:04N 53°47' E 004°46'1912.4
2016-Sep-19 14:33N 54°05' E 004°58'1212.0
2016-Sep-19 13:33N 54°15' E 005°10'28510.6
2016-Sep-18 10:33N 57°25' E 011°28'1312.9
2016-Sep-18 09:33N 57°12' E 011°36'  

Dump ship's entire track history